Lackawanna, NY (14218)

1:49 AM EDT on September 19, 2014 (GMT -0400)
Winchester | Change Station
CLOSE
Current Station
Personal Weather Station
Location: West Seneca, NY
Elevation: 594 ft
Nearby Weather Stations

Elev 594 ft 42.86 °N, 78.79 °W | Updated 3 minutes ago

Clear
Clear
38.7 °F
Feels Like 39 °F
N
0.0
Wind Variable Wind from NE

Today
High -- | Low -- °F
--% Chance of Precip.
Yesterday
High -- | Low -- °F
Precip. -- in
6:59 AM 7:17 PM
Waning Crescent, 21% visible
Pressure 30.25 in
Visibility 10.0 miles
Clouds Few 25000 ft
Windchill 39 °F
Dew Point 38 °F
Humidity 99%
Rainfall 0.00 in
Snow Depth Not available.
UV 0 out of 12
Pollen 3.60 out of 12
PM2.5 Good
Flu Activity Not available.
METAR KBUF 190454Z 12003KT 10SM FEW250 07/05 A3023 RMK AO2 SLP242 T00670050 401670067

More Conditions Fewer Conditions

Pressure 30.25 in
Visibility 10.0 miles
Clouds Few 25000 ft
Windchill 39 °F
Dew Point 38 °F
Humidity 99%
Rainfall 0.00 in
Snow Depth Not available.
UV 0 out of 12
Pollen 3.60 out of 12
PM2.5 Good
Flu Activity Not available.
METAR KBUF 190454Z 12003KT 10SM FEW250 07/05 A3023 RMK AO2 SLP242 T00670050 401670067

More Conditions Fewer Conditions

10-Day Weather Forecast

Almanac

Astronomy

Sep. 19, 2014 Rise Set
Actual Time 6:59 AM EDT 7:17 PM EDT
Civil Twilight 6:30 AM EDT 7:46 PM EDT
Nautical Twilight 5:57 AM EDT 8:19 PM EDT
Astronomical Twilight 5:23 AM EDT 8:53 PM EDT
Moon 2:37 AM EDT 4:50 PM EDT
Length of Visible Light 13h 15m
Length of Day
12h 18m
Tomorrow will be 2m 53s shorter.
Waning Crescent, 21% of the Moon is Illuminated
Today
Waning Crescent
Sep 24
New
Oct 1
First Quarter
Oct 8
Full
Oct 15
Last Quarter

Today's Extremes

State Highs State Lows

Community

WunderPhotos

Upload Photos

1,754,573 photos uploaded!

Nearby

Air Quality

  Air Quality AQ Index Pollutant
Yesterday Good
PM2.5
Yesterday Good
OZONE
Current Good
PM2.5
Friday Good
OZONE
Friday Good
PM2.5

Snow Depth

Station Depth Elevation
No new snow has been reported.

Earthquake Activity

City Distance Mag. Time & Date
No recent earthquake activity has been reported nearby.
Minimum magnitude displayed is 2.5.

Coastal Water Temperatures

Place Temperature
Buffalo, NY 66.9 °F

Nearby Weather Stations